createdAt,value
2022-08-07T00:00:45.924Z,3.23
2022-08-07T00:03:51.007Z,3.07
2022-08-07T00:06:54.808Z,2.97
2022-08-07T00:10:25.525Z,3.00
2022-08-07T00:13:23.782Z,2.87
2022-08-07T00:16:31.079Z,2.90
2022-08-07T00:20:01.436Z,2.70
2022-08-07T00:22:59.631Z,2.83
2022-08-07T00:26:13.340Z,2.83
2022-08-07T00:29:31.356Z,2.83
2022-08-07T00:32:37.284Z,2.80
2022-08-07T00:35:41.071Z,2.90
2022-08-07T00:38:44.800Z,2.80
2022-08-07T00:42:02.307Z,2.80
2022-08-07T00:45:16.331Z,2.63
2022-08-07T00:48:24.935Z,2.70
2022-08-07T00:51:57.197Z,3.00
2022-08-07T00:54:58.967Z,2.87
2022-08-07T00:58:08.771Z,3.00
2022-08-07T01:01:12.828Z,3.07
2022-08-07T01:04:21.682Z,3.00
2022-08-07T01:07:31.108Z,3.07
2022-08-07T01:10:35.590Z,3.20
2022-08-07T01:13:39.728Z,2.87
2022-08-07T01:17:00.333Z,2.77
2022-08-07T01:20:16.711Z,2.90
2022-08-07T01:23:35.484Z,3.13
2022-08-07T01:26:44.262Z,2.80
2022-08-07T01:29:56.559Z,2.90
2022-08-07T01:33:01.380Z,2.90
2022-08-07T01:36:09.951Z,3.10
2022-08-07T01:39:18.472Z,3.40
2022-08-07T01:42:38.619Z,3.23
2022-08-07T01:45:55.763Z,2.80
2022-08-07T01:49:03.785Z,3.10
2022-08-07T01:52:10.946Z,3.10
2022-08-07T01:55:24.233Z,3.30
2022-08-07T01:58:37.466Z,3.30
2022-08-07T02:02:02.027Z,3.10
2022-08-07T02:05:15.906Z,3.47
2022-08-07T02:08:41.748Z,3.10
2022-08-07T02:12:04.062Z,3.27
2022-08-07T02:15:14.444Z,3.10
2022-08-07T02:18:23.045Z,2.97
2022-08-07T02:21:56.741Z,3.20
2022-08-07T02:24:57.116Z,3.20
2022-08-07T02:28:07.011Z,3.17
2022-08-07T02:31:18.965Z,3.37
2022-08-07T02:34:34.940Z,3.40
2022-08-07T02:37:44.147Z,2.93
2022-08-07T02:40:53.847Z,3.30
2022-08-07T02:44:03.276Z,3.17
2022-08-07T02:47:19.610Z,3.30
2022-08-07T02:50:27.387Z,3.17
2022-08-07T02:53:38.463Z,3.40
2022-08-07T02:56:49.144Z,3.53
2022-08-07T03:00:01.239Z,3.30
2022-08-07T03:03:13.502Z,3.37
2022-08-07T03:06:26.289Z,3.60
2022-08-07T03:09:43.960Z,3.30
2022-08-07T03:12:51.891Z,3.40
2022-08-07T03:15:58.845Z,3.17
2022-08-07T03:19:06.847Z,3.57
2022-08-07T03:22:18.711Z,2.80
2022-08-07T03:25:25.896Z,3.30
2022-08-07T03:28:39.559Z,3.20
2022-08-07T03:31:49.925Z,3.43
2022-08-07T03:35:16.559Z,3.43
2022-08-07T03:38:29.733Z,3.17
2022-08-07T03:41:42.152Z,3.50
2022-08-07T03:44:53.719Z,3.00
2022-08-07T03:48:04.443Z,3.27
2022-08-07T03:51:15.268Z,3.30
2022-08-07T03:54:36.508Z,3.10
2022-08-07T03:58:34.646Z,3.47
2022-08-07T04:01:17.344Z,3.37
2022-08-07T04:04:25.623Z,3.70
2022-08-07T04:07:35.989Z,3.50
2022-08-07T04:10:54.001Z,3.30
2022-08-07T04:14:38.461Z,3.43
2022-08-07T04:18:11.234Z,3.30
2022-08-07T04:21:01.588Z,3.23
2022-08-07T04:24:10.455Z,3.50
2022-08-07T04:27:44.021Z,3.73
2022-08-07T04:30:55.539Z,3.30
2022-08-07T04:34:05.877Z,3.30
2022-08-07T04:37:22.548Z,3.43
2022-08-07T04:40:32.204Z,3.40
2022-08-07T04:44:10.307Z,3.40
2022-08-07T04:47:11.233Z,3.67
2022-08-07T04:50:39.824Z,3.40
2022-08-07T04:54:05.826Z,3.50
2022-08-07T04:58:11.507Z,3.40
2022-08-07T05:00:51.659Z,3.70
2022-08-07T05:04:08.912Z,3.33
2022-08-07T05:07:30.441Z,3.60
2022-08-07T05:10:48.412Z,3.07
2022-08-07T05:14:51.970Z,3.47
2022-08-07T05:17:51.466Z,3.17
2022-08-07T05:20:54.806Z,3.27
2022-08-07T05:24:02.216Z,3.50
2022-08-07T05:27:14.468Z,3.20
2022-08-07T05:30:40.159Z,3.40
2022-08-07T05:34:01.028Z,3.03
2022-08-07T05:37:10.312Z,3.93
2022-08-07T05:40:23.089Z,3.30
2022-08-07T05:44:07.758Z,3.40
2022-08-07T05:47:01.195Z,3.40
2022-08-07T05:50:07.609Z,3.23
2022-08-07T05:54:08.483Z,3.60
2022-08-07T05:56:40.768Z,3.40
2022-08-07T05:59:57.507Z,3.70
2022-08-07T06:03:08.107Z,3.20
2022-08-07T06:06:17.428Z,3.57
2022-08-07T06:10:04.622Z,3.40
2022-08-07T06:12:49.823Z,3.17
2022-08-07T06:15:56.746Z,3.53
2022-08-07T06:19:06.627Z,3.57
2022-08-07T06:22:22.784Z,4.00
2022-08-07T06:25:34.752Z,3.37
2022-08-07T06:28:49.448Z,3.20
2022-08-07T06:31:58.515Z,3.60
2022-08-07T06:35:10.543Z,3.30
2022-08-07T06:38:22.069Z,3.30
2022-08-07T06:42:02.477Z,3.70
2022-08-07T06:44:59.487Z,3.07
2022-08-07T06:48:06.658Z,3.63
2022-08-07T06:51:31.157Z,3.20
2022-08-07T06:55:33.827Z,3.50
2022-08-07T06:58:10.174Z,3.60
2022-08-07T07:01:23.145Z,3.33
2022-08-07T07:04:33.313Z,3.40
2022-08-07T07:07:59.772Z,3.40
2022-08-07T07:11:02.814Z,3.70
2022-08-07T07:14:23.298Z,3.50
2022-08-07T07:17:38.768Z,3.30
2022-08-07T07:20:48.786Z,3.10
2022-08-07T07:24:09.420Z,3.00
2022-08-07T07:27:19.521Z,3.60
2022-08-07T07:30:37.950Z,3.13
2022-08-07T07:33:44.598Z,3.10
2022-08-07T07:37:14.722Z,3.10
2022-08-07T07:40:28.055Z,3.27
2022-08-07T07:44:14.805Z,3.33
2022-08-07T07:47:14.302Z,3.40
2022-08-07T07:50:33.285Z,3.37
2022-08-07T07:53:51.830Z,3.40
2022-08-07T07:56:59.030Z,3.37
2022-08-07T08:00:07.547Z,2.90
2022-08-07T08:04:06.123Z,3.30
2022-08-07T08:06:52.332Z,2.83
2022-08-07T08:10:04.883Z,3.20
2022-08-07T08:13:15.165Z,3.50
2022-08-07T08:16:24.972Z,3.30
2022-08-07T08:20:19.263Z,3.80
2022-08-07T08:23:15.853Z,3.03
2022-08-07T08:26:40.434Z,3.60
2022-08-07T08:29:55.812Z,3.33
2022-08-07T08:33:03.218Z,3.37
2022-08-07T08:36:09.852Z,3.20
2022-08-07T08:39:16.620Z,3.20
2022-08-07T08:42:28.570Z,2.93
2022-08-07T08:45:58.473Z,3.10
2022-08-07T08:49:11.411Z,2.70
2022-08-07T08:52:23.296Z,3.00
2022-08-07T08:55:54.531Z,3.27
2022-08-07T08:59:13.502Z,3.47
2022-08-07T09:02:36.524Z,3.10
2022-08-07T09:05:49.098Z,3.00
2022-08-07T09:09:09.702Z,3.00
2022-08-07T09:12:41.876Z,3.20
2022-08-07T09:16:24.885Z,3.47
2022-08-07T09:19:53.301Z,3.87
2022-08-07T09:24:33.794Z,3.80
2022-08-07T09:26:47.701Z,3.57
2022-08-07T09:30:08.378Z,3.90
2022-08-07T09:33:52.684Z,3.70
2022-08-07T09:37:01.548Z,3.90
2022-08-07T09:40:17.932Z,4.03
2022-08-07T09:44:03.455Z,4.20
2022-08-07T09:47:50.854Z,4.07
2022-08-07T09:50:47.501Z,4.03
2022-08-07T09:54:02.693Z,3.80
2022-08-07T09:57:18.883Z,4.07
2022-08-07T10:00:32.132Z,4.03
2022-08-07T10:04:06.247Z,3.80
2022-08-07T10:07:52.970Z,4.03
2022-08-07T10:11:58.904Z,4.10
2022-08-07T10:14:54.310Z,4.13
2022-08-07T10:18:21.761Z,4.60
2022-08-07T10:22:12.216Z,3.83
2022-08-07T10:25:42.319Z,4.03
2022-08-07T10:29:00.256Z,4.10
2022-08-07T10:32:51.058Z,4.37
2022-08-07T10:36:10.910Z,4.10
2022-08-07T10:39:41.518Z,4.37
2022-08-07T10:43:03.029Z,4.13
2022-08-07T10:46:14.587Z,4.47
2022-08-07T10:49:49.901Z,4.03
2022-08-07T10:52:59.923Z,4.30
2022-08-07T10:56:20.929Z,4.57
2022-08-07T10:59:48.523Z,4.10
2022-08-07T11:03:04.039Z,4.10
2022-08-07T11:06:21.966Z,4.37
2022-08-07T11:10:09.131Z,4.13
2022-08-07T11:13:01.721Z,4.00
2022-08-07T11:16:11.199Z,3.90
2022-08-07T11:19:21.725Z,3.80
2022-08-07T11:22:45.835Z,3.90
2022-08-07T11:25:55.907Z,4.00
2022-08-07T11:29:41.095Z,3.63
2022-08-07T11:32:49.782Z,3.83
2022-08-07T11:36:10.433Z,3.73
2022-08-07T11:39:25.157Z,3.60
2022-08-07T11:42:59.123Z,3.90
2022-08-07T11:46:23.336Z,4.00
2022-08-07T11:50:30.105Z,3.90
2022-08-07T11:53:28.448Z,3.90
2022-08-07T11:56:56.123Z,3.77
2022-08-07T12:00:19.025Z,3.90
2022-08-07T12:03:49.545Z,4.03
2022-08-07T12:07:17.328Z,3.90
2022-08-07T12:10:28.893Z,3.50
2022-08-07T12:13:47.768Z,3.90
2022-08-07T12:16:56.285Z,3.90
2022-08-07T12:20:12.879Z,3.97
2022-08-07T12:24:06.403Z,3.97
2022-08-07T12:27:15.829Z,3.50
2022-08-07T12:30:25.458Z,3.83
2022-08-07T12:33:56.717Z,3.80
2022-08-07T12:36:59.116Z,3.70
2022-08-07T12:40:14.839Z,4.13
2022-08-07T12:44:02.039Z,3.67
2022-08-07T12:47:10.944Z,3.50
2022-08-07T12:50:38.311Z,3.77
2022-08-07T12:54:23.857Z,3.40
2022-08-07T12:57:18.769Z,3.53
2022-08-07T13:00:32.541Z,3.47
2022-08-07T13:04:03.098Z,3.60
2022-08-07T13:08:12.122Z,3.50
2022-08-07T13:11:27.207Z,3.50
2022-08-07T13:14:51.392Z,3.40
2022-08-07T13:18:04.507Z,3.50
2022-08-07T13:21:50.230Z,3.53
2022-08-07T13:24:52.496Z,3.60
2022-08-07T13:28:13.951Z,3.60
2022-08-07T13:31:32.026Z,3.60
2022-08-07T13:34:48.469Z,3.63
2022-08-07T13:38:01.809Z,3.40
2022-08-07T13:41:17.717Z,3.80
2022-08-07T13:44:27.030Z,3.67
2022-08-07T13:48:06.167Z,3.30
2022-08-07T13:51:26.870Z,3.17
2022-08-07T13:54:34.115Z,3.23
2022-08-07T13:57:51.636Z,3.90
2022-08-07T14:01:13.130Z,3.53
2022-08-07T14:04:21.423Z,3.10
2022-08-07T14:07:30.607Z,3.80
2022-08-07T14:10:42.107Z,3.30
2022-08-07T14:13:55.824Z,3.40
2022-08-07T14:17:13.243Z,3.27
2022-08-07T14:20:41.126Z,3.23
2022-08-07T14:24:00.591Z,3.50
2022-08-07T14:28:11.657Z,3.33
2022-08-07T14:30:36.039Z,3.17
2022-08-07T14:33:47.412Z,3.10
2022-08-07T14:36:56.176Z,3.60
2022-08-07T14:40:17.990Z,3.10
2022-08-07T14:43:55.792Z,3.30
2022-08-07T14:47:08.977Z,3.50
2022-08-07T14:50:20.669Z,3.03
2022-08-07T14:56:53.038Z,3.30
2022-08-07T15:00:04.614Z,3.30
2022-08-07T15:03:18.658Z,3.43
2022-08-07T15:06:26.895Z,3.30
2022-08-07T15:09:59.508Z,3.47
2022-08-07T15:13:00.953Z,3.33
2022-08-07T15:16:11.167Z,2.80
2022-08-07T15:19:19.741Z,3.43
2022-08-07T15:22:53.634Z,3.10
2022-08-07T15:26:02.693Z,3.20
2022-08-07T15:36:05.160Z,3.20
2022-08-07T15:39:12.393Z,3.10
2022-08-07T15:49:15.538Z,2.97
2022-08-07T15:52:30.765Z,3.17
2022-08-07T15:56:01.987Z,3.00
2022-08-07T15:59:04.353Z,2.67
2022-08-07T16:02:15.577Z,2.80
2022-08-07T16:05:23.270Z,3.10
2022-08-07T16:08:41.415Z,3.07
2022-08-07T16:12:12.178Z,3.00
2022-08-07T16:15:55.065Z,2.97
2022-08-07T16:19:13.449Z,2.83
2022-08-07T16:22:54.380Z,3.20
2022-08-07T16:26:14.402Z,2.90
2022-08-07T16:30:11.085Z,2.97
2022-08-07T16:32:56.521Z,2.70
2022-08-07T16:36:31.249Z,2.90
2022-08-07T16:40:03.789Z,3.10
2022-08-07T16:43:24.935Z,3.20
2022-08-07T16:47:38.618Z,2.90
2022-08-07T16:51:21.877Z,2.67
2022-08-07T16:54:55.200Z,2.73
2022-08-07T16:58:04.157Z,2.87
2022-08-07T17:01:34.305Z,3.00
2022-08-07T17:04:51.016Z,2.83
2022-08-07T17:08:02.680Z,3.07
2022-08-07T17:11:14.305Z,2.77
2022-08-07T17:14:24.521Z,2.60
2022-08-07T17:17:46.332Z,2.87
2022-08-07T17:20:53.952Z,3.03
2022-08-07T17:24:23.778Z,2.90
2022-08-07T17:27:50.857Z,2.83
2022-08-07T17:31:15.941Z,2.77
2022-08-07T17:34:35.053Z,2.77
2022-08-07T17:38:06.491Z,2.80
2022-08-07T17:42:01.979Z,2.50
2022-08-07T17:44:51.149Z,2.67
2022-08-07T17:48:04.489Z,2.50
2022-08-07T17:51:21.355Z,2.50
2022-08-07T17:54:53.252Z,2.80
2022-08-07T17:58:05.162Z,2.90
2022-08-07T18:01:21.507Z,2.90
2022-08-07T18:04:34.735Z,2.73
2022-08-07T18:07:44.977Z,2.60
2022-08-07T18:12:06.182Z,2.70
2022-08-07T18:14:28.863Z,2.80
2022-08-07T18:18:39.919Z,2.60
2022-08-07T18:21:29.551Z,2.60
2022-08-07T18:24:36.847Z,2.67
2022-08-07T18:28:33.088Z,2.70
2022-08-07T18:31:50.279Z,2.60
2022-08-07T18:35:11.331Z,2.73
2022-08-07T18:38:56.140Z,2.60
2022-08-07T18:41:56.142Z,3.07
2022-08-07T18:45:43.179Z,2.77
2022-08-07T18:50:19.054Z,3.00
2022-08-07T18:52:54.197Z,2.90
2022-08-07T18:56:13.375Z,3.10
2022-08-07T18:59:59.343Z,3.00
2022-08-07T19:03:12.197Z,2.70
2022-08-07T19:06:20.466Z,2.87
2022-08-07T19:09:57.401Z,3.23
2022-08-07T19:13:11.784Z,2.90
2022-08-07T19:17:01.473Z,3.10
2022-08-07T19:20:30.199Z,2.70
2022-08-07T19:23:57.154Z,2.90
2022-08-07T19:28:30.701Z,3.03
2022-08-07T19:31:05.417Z,2.80
2022-08-07T19:34:02.777Z,2.90
2022-08-07T19:37:17.587Z,2.60
2022-08-07T19:40:31.639Z,2.67
2022-08-07T19:43:48.889Z,2.80
2022-08-07T19:47:04.679Z,2.60
2022-08-07T19:50:41.574Z,2.63
2022-08-07T19:54:32.590Z,2.70
2022-08-07T19:58:00.226Z,2.40
2022-08-07T20:00:29.870Z,2.43
2022-08-07T20:03:36.472Z,2.40
2022-08-07T20:06:43.014Z,2.63
2022-08-07T20:10:36.314Z,2.60
2022-08-07T20:13:23.107Z,2.93
2022-08-07T20:16:34.954Z,2.97
2022-08-07T20:19:47.475Z,3.10
2022-08-07T20:22:59.456Z,3.17
2022-08-07T20:26:10.032Z,2.83
2022-08-07T20:29:49.098Z,2.90
2022-08-07T20:32:44.818Z,2.70
2022-08-07T20:36:03.104Z,3.00
2022-08-07T20:39:30.456Z,2.87
2022-08-07T20:42:34.501Z,2.83
2022-08-07T20:46:25.746Z,3.20
2022-08-07T20:49:59.396Z,2.73
2022-08-07T20:52:51.297Z,2.70
2022-08-07T20:55:58.958Z,2.70
2022-08-07T20:59:06.051Z,2.90
2022-08-07T21:02:55.077Z,2.87
2022-08-07T21:06:21.745Z,2.63
2022-08-07T21:09:51.924Z,2.60
2022-08-07T21:13:01.793Z,2.80
2022-08-07T21:16:09.150Z,2.80
2022-08-07T21:19:15.007Z,2.77
2022-08-07T21:22:28.682Z,2.60
2022-08-07T21:25:44.992Z,2.50
2022-08-07T21:29:04.374Z,2.80
2022-08-07T21:32:47.430Z,2.73
2022-08-07T21:36:04.038Z,2.60
2022-08-07T21:39:46.669Z,2.70
2022-08-07T21:42:51.015Z,2.90
2022-08-07T21:46:10.050Z,2.87
2022-08-07T21:49:40.720Z,2.90
2022-08-07T21:53:08.584Z,2.70
2022-08-07T21:56:36.226Z,2.57
2022-08-07T22:00:04.673Z,2.67
2022-08-07T22:03:16.475Z,2.77
2022-08-07T22:06:29.998Z,2.97
2022-08-07T22:09:54.459Z,2.60
2022-08-07T22:13:02.611Z,2.90
2022-08-07T22:16:43.042Z,2.67
2022-08-07T22:19:43.425Z,2.70
2022-08-07T22:22:50.819Z,3.00
2022-08-07T22:26:05.795Z,2.80
2022-08-07T22:29:37.710Z,2.47
2022-08-07T22:32:58.990Z,2.60
2022-08-07T22:36:12.040Z,2.70
2022-08-07T22:39:28.328Z,2.90
2022-08-07T22:42:36.337Z,2.70
2022-08-07T22:46:40.832Z,2.87
2022-08-07T22:49:51.769Z,2.73
2022-08-07T22:54:06.493Z,2.60
2022-08-07T22:57:17.014Z,2.93
2022-08-07T23:00:28.602Z,2.63
2022-08-07T23:03:57.885Z,2.90
2022-08-07T23:07:30.141Z,2.63
2022-08-07T23:10:46.268Z,3.00
2022-08-07T23:14:15.672Z,2.57
2022-08-07T23:17:36.005Z,2.67
2022-08-07T23:21:16.625Z,2.73
2022-08-07T23:24:38.687Z,2.80
2022-08-07T23:28:21.757Z,2.57
2022-08-07T23:34:24.041Z,2.53
2022-08-07T23:35:16.571Z,2.60
2022-08-07T23:38:42.648Z,2.80
2022-08-07T23:42:04.583Z,2.70
2022-08-07T23:46:01.463Z,2.80
2022-08-07T23:49:15.449Z,2.63
2022-08-07T23:52:58.009Z,2.60
2022-08-07T23:56:01.773Z,2.77
